createdAt,value
2016-07-25T00:00:38.764Z,1012.45
2016-07-25T00:01:38.750Z,1012.45
2016-07-25T00:02:38.735Z,1012.48
2016-07-25T00:03:38.719Z,1012.46
2016-07-25T00:04:38.712Z,1012.44
2016-07-25T00:05:38.695Z,1012.48
2016-07-25T00:06:38.683Z,1012.41
2016-07-25T00:07:38.665Z,1012.39
2016-07-25T00:08:38.647Z,1012.43
2016-07-25T00:09:38.634Z,1012.42
2016-07-25T00:10:38.623Z,1012.42
2016-07-25T00:11:38.606Z,1012.38
2016-07-25T00:12:38.613Z,1012.42
2016-07-25T00:13:38.578Z,1012.41
2016-07-25T00:14:38.563Z,1012.39
2016-07-25T00:15:38.549Z,1012.37
2016-07-25T00:16:38.535Z,1012.35
2016-07-25T00:17:38.519Z,1012.38
2016-07-25T00:18:38.509Z,1012.35
2016-07-25T00:19:38.490Z,1012.4
2016-07-25T00:20:38.478Z,1012.38
2016-07-25T00:21:38.464Z,1012.4
2016-07-25T00:22:38.449Z,1012.42
2016-07-25T00:23:38.436Z,1012.42
2016-07-25T00:24:38.419Z,1012.37
2016-07-25T00:25:38.406Z,1012.39
2016-07-25T00:26:38.388Z,1012.4
2016-07-25T00:27:38.379Z,1012.37
2016-07-25T00:28:38.361Z,1012.38
2016-07-25T00:29:38.349Z,1012.38
2016-07-25T00:30:38.335Z,1012.35
2016-07-25T00:31:38.319Z,1012.35
2016-07-25T00:32:38.303Z,1012.32
2016-07-25T00:33:38.289Z,1012.28
2016-07-25T00:34:38.274Z,1012.3
2016-07-25T00:35:38.257Z,1012.29
2016-07-25T00:36:38.245Z,1012.28
2016-07-25T00:37:38.231Z,1012.25
2016-07-25T00:38:38.216Z,1012.28
2016-07-25T00:39:38.202Z,1012.27
2016-07-25T00:40:38.189Z,1012.27
2016-07-25T00:41:38.173Z,1012.29
2016-07-25T00:42:38.164Z,1012.3
2016-07-25T00:43:38.145Z,1012.33
2016-07-25T00:44:38.130Z,1012.38
2016-07-25T00:45:38.118Z,1012.36
2016-07-25T00:46:38.103Z,1012.4
2016-07-25T00:47:38.090Z,1012.37
2016-07-25T00:48:38.076Z,1012.41
2016-07-25T00:49:38.062Z,1012.37
2016-07-25T00:50:38.045Z,1012.37
2016-07-25T00:51:38.031Z,1012.36
2016-07-25T00:52:38.017Z,1012.37
2016-07-25T00:53:38.001Z,1012.34
2016-07-25T00:54:37.988Z,1012.38
2016-07-25T00:55:37.973Z,1012.37
2016-07-25T00:56:37.958Z,1012.35
2016-07-25T00:57:37.944Z,1012.36
2016-07-25T00:58:37.930Z,1012.37
2016-07-25T00:59:37.914Z,1012.35
2016-07-25T01:00:37.904Z,1012.35
2016-07-25T01:01:37.883Z,1012.4
2016-07-25T01:02:37.872Z,1012.35
2016-07-25T01:03:37.857Z,1012.36
2016-07-25T01:04:37.846Z,1012.35
2016-07-25T01:05:37.827Z,1012.33
2016-07-25T01:06:37.811Z,1012.34
2016-07-25T01:07:37.800Z,1012.38
2016-07-25T01:08:37.784Z,1012.34
2016-07-25T01:09:37.772Z,1012.36
2016-07-25T01:10:37.756Z,1012.36
2016-07-25T01:11:37.741Z,1012.34
2016-07-25T01:12:37.725Z,1012.36
2016-07-25T01:13:37.711Z,1012.41
2016-07-25T01:14:37.697Z,1012.41
2016-07-25T01:15:37.684Z,1012.39
2016-07-25T01:16:37.667Z,1012.41
2016-07-25T01:17:37.654Z,1012.39
2016-07-25T01:18:37.639Z,1012.38
2016-07-25T01:19:37.626Z,1012.4
2016-07-25T01:20:37.609Z,1012.4
2016-07-25T01:21:37.595Z,1012.39
2016-07-25T01:22:37.582Z,1012.4
2016-07-25T01:23:37.565Z,1012.39
2016-07-25T01:24:37.553Z,1012.41
2016-07-25T01:25:37.538Z,1012.41
2016-07-25T01:26:37.524Z,1012.37
2016-07-25T01:27:37.508Z,1012.4
2016-07-25T01:28:37.494Z,1012.45
2016-07-25T01:29:37.479Z,1012.41
2016-07-25T01:30:37.463Z,1012.39
2016-07-25T01:31:37.450Z,1012.4
2016-07-25T01:32:37.435Z,1012.37
2016-07-25T01:33:37.422Z,1012.39
2016-07-25T01:34:37.408Z,1012.36
2016-07-25T01:35:37.391Z,1012.35
2016-07-25T01:36:37.379Z,1012.35
2016-07-25T01:37:37.362Z,1012.35
2016-07-25T01:38:37.348Z,1012.33
2016-07-25T01:39:37.333Z,1012.34
2016-07-25T01:40:37.319Z,1012.36
2016-07-25T01:41:37.304Z,1012.34
2016-07-25T01:42:37.292Z,1012.32
2016-07-25T01:43:37.275Z,1012.36
2016-07-25T01:44:37.261Z,1012.34
2016-07-25T01:45:37.249Z,1012.36
2016-07-25T01:46:37.231Z,1012.39
2016-07-25T01:47:37.218Z,1012.36
2016-07-25T01:48:37.202Z,1012.38
2016-07-25T01:49:37.190Z,1012.4
2016-07-25T01:50:37.174Z,1012.39
2016-07-25T01:51:37.160Z,1012.34
2016-07-25T01:52:37.142Z,1012.35
2016-07-25T01:53:37.129Z,1012.37
2016-07-25T01:54:37.117Z,1012.38
2016-07-25T01:55:37.103Z,1012.35
2016-07-25T01:56:37.085Z,1012.36
2016-07-25T01:57:37.072Z,1012.38
2016-07-25T01:58:37.055Z,1012.39
2016-07-25T01:59:37.041Z,1012.35
2016-07-25T02:00:37.025Z,1012.36
2016-07-25T02:01:37.013Z,1012.38
2016-07-25T02:02:36.998Z,1012.39
2016-07-25T02:03:36.986Z,1012.37
2016-07-25T02:04:36.969Z,1012.36
2016-07-25T02:05:36.954Z,1012.37
2016-07-25T02:06:36.939Z,1012.36
2016-07-25T02:07:36.927Z,1012.36
2016-07-25T02:08:36.910Z,1012.31
2016-07-25T02:09:36.898Z,1012.36
2016-07-25T02:10:36.880Z,1012.35
2016-07-25T02:11:36.867Z,1012.34
2016-07-25T02:12:36.852Z,1012.35
2016-07-25T02:13:36.836Z,1012.34
2016-07-25T02:14:36.819Z,1012.28
2016-07-25T02:15:36.805Z,1012.27
2016-07-25T02:16:36.793Z,1012.24
2016-07-25T02:17:36.778Z,1012.25
2016-07-25T02:18:36.764Z,1012.29
2016-07-25T02:19:36.745Z,1012.25
2016-07-25T02:20:36.736Z,1012.26
2016-07-25T02:21:36.718Z,1012.19
2016-07-25T02:22:36.703Z,1012.23
2016-07-25T02:23:36.690Z,1012.2
2016-07-25T02:24:36.675Z,1012.27
2016-07-25T02:25:36.661Z,1012.24
2016-07-25T02:26:36.646Z,1012.32
2016-07-25T02:27:36.632Z,1012.2
2016-07-25T02:28:36.616Z,1012.22
2016-07-25T02:29:36.600Z,1012.25
2016-07-25T02:30:36.586Z,1012.23
2016-07-25T02:31:36.570Z,1012.21
2016-07-25T02:32:36.557Z,1012.21
2016-07-25T02:33:36.543Z,1012.23
2016-07-25T02:34:36.528Z,1012.26
2016-07-25T02:35:36.511Z,1012.27
2016-07-25T02:36:36.502Z,1012.23
2016-07-25T02:37:36.484Z,1012.23
2016-07-25T02:38:36.469Z,1012.22
2016-07-25T02:39:36.454Z,1012.2
2016-07-25T02:40:36.439Z,1012.21
2016-07-25T02:41:36.423Z,1012.18
2016-07-25T02:42:36.413Z,1012.17
2016-07-25T02:43:36.395Z,1012.2
2016-07-25T02:44:36.380Z,1012.22
2016-07-25T02:45:36.369Z,1012.19
2016-07-25T02:46:36.353Z,1012.2
2016-07-25T02:47:36.337Z,1012.18
2016-07-25T02:48:36.323Z,1012.21
2016-07-25T02:49:36.307Z,1012.21
2016-07-25T02:50:36.293Z,1012.19
2016-07-25T02:51:36.276Z,1012.19
2016-07-25T02:52:36.263Z,1012.16
2016-07-25T02:53:36.249Z,1012.14
2016-07-25T02:54:36.238Z,1012.14
2016-07-25T02:55:36.219Z,1012.13
2016-07-25T02:56:36.205Z,1012.18
2016-07-25T02:57:36.189Z,1012.17
2016-07-25T02:58:36.177Z,1012.16
2016-07-25T02:59:36.160Z,1012.15
2016-07-25T03:00:36.148Z,1012.21
2016-07-25T03:01:36.129Z,1012.13
2016-07-25T03:02:36.119Z,1012.14
2016-07-25T03:03:36.101Z,1012.12
2016-07-25T03:04:36.087Z,1012.14
2016-07-25T03:05:36.070Z,1012.15
2016-07-25T03:06:36.057Z,1012.16
2016-07-25T03:07:36.040Z,1012.14
2016-07-25T03:08:36.029Z,1012.12
2016-07-25T03:09:36.012Z,1012.13
2016-07-25T03:10:35.999Z,1012.16
2016-07-25T03:11:35.981Z,1012.12
2016-07-25T03:12:35.970Z,1012.08
2016-07-25T03:13:35.952Z,1012.11
2016-07-25T03:14:35.939Z,1012.15
2016-07-25T03:15:35.924Z,1012.08
2016-07-25T03:16:35.909Z,1012.1
2016-07-25T03:17:35.897Z,1012.07
2016-07-25T03:18:35.881Z,1012.09
2016-07-25T03:19:35.865Z,1012.09
2016-07-25T03:20:35.848Z,1012.09
2016-07-25T03:21:35.836Z,1012.09
2016-07-25T03:22:35.826Z,1012.1
2016-07-25T03:23:35.805Z,1012.08
2016-07-25T03:24:35.792Z,1012.1
2016-07-25T03:25:35.776Z,1012.12
2016-07-25T03:26:35.763Z,1012.08
2016-07-25T03:27:35.746Z,1012.09
2016-07-25T03:28:35.736Z,1012.07
2016-07-25T03:29:35.717Z,1012.08
2016-07-25T03:30:35.702Z,1012.07
2016-07-25T03:31:35.689Z,1012.08
2016-07-25T03:32:35.680Z,1012.07
2016-07-25T03:33:35.657Z,1012.06
2016-07-25T03:34:35.650Z,1012.04
2016-07-25T03:35:35.626Z,1012.04
2016-07-25T03:36:35.614Z,1012.05
2016-07-25T03:37:35.603Z,1012.05
2016-07-25T03:38:35.584Z,1012.03
2016-07-25T03:39:35.569Z,1012.05
2016-07-25T03:40:35.555Z,1012.08
2016-07-25T03:41:35.540Z,1012.04
2016-07-25T03:42:35.525Z,1012.09
2016-07-25T03:43:35.509Z,1012.07
2016-07-25T03:44:35.494Z,1012.12
2016-07-25T03:45:35.486Z,1012.1
2016-07-25T03:46:35.464Z,1012.1
2016-07-25T03:47:35.452Z,1012.07
2016-07-25T03:48:35.433Z,1012.1
2016-07-25T03:49:35.422Z,1012.1
2016-07-25T03:50:35.405Z,1012.08
2016-07-25T03:51:35.395Z,1012.08
2016-07-25T03:52:35.377Z,1012.1
2016-07-25T03:53:35.361Z,1012.12
2016-07-25T03:54:35.349Z,1012.11
2016-07-25T03:55:35.332Z,1012.12
2016-07-25T03:56:35.320Z,1012.1
2016-07-25T03:57:35.307Z,1012.07
2016-07-25T03:58:35.287Z,1012.05
2016-07-25T03:59:35.275Z,1012.04
2016-07-25T04:00:35.259Z,1012.07
2016-07-25T04:01:35.246Z,1012.13
2016-07-25T04:02:35.229Z,1012.08
2016-07-25T04:03:35.208Z,1012.11
2016-07-25T04:04:35.198Z,1012.1
2016-07-25T04:05:35.185Z,1012.1
2016-07-25T04:06:35.168Z,1012.11
2016-07-25T04:07:35.157Z,1012.08
2016-07-25T04:08:35.138Z,1012.09
2016-07-25T04:09:35.127Z,1012.11
2016-07-25T04:10:35.111Z,1012.1
2016-07-25T04:11:35.094Z,1012.12
2016-07-25T04:12:35.084Z,1012.16
2016-07-25T04:13:35.067Z,1012.17
2016-07-25T04:14:35.050Z,1012.12
2016-07-25T04:15:35.035Z,1012.16
2016-07-25T04:16:35.020Z,1012.16
2016-07-25T04:17:35.006Z,1012.19
2016-07-25T04:18:34.990Z,1012.16
2016-07-25T04:19:34.976Z,1012.16
2016-07-25T04:20:34.961Z,1012.15
2016-07-25T04:21:34.944Z,1012.19
2016-07-25T04:22:34.930Z,1012.15
2016-07-25T04:23:34.914Z,1012.15
2016-07-25T04:24:34.899Z,1012.19
2016-07-25T04:25:34.885Z,1012.18
2016-07-25T04:26:34.869Z,1012.23
2016-07-25T04:27:34.858Z,1012.24
2016-07-25T04:28:34.841Z,1012.26
2016-07-25T04:29:34.825Z,1012.24
2016-07-25T04:30:34.811Z,1012.23
2016-07-25T04:31:34.794Z,1012.27
2016-07-25T04:32:34.779Z,1012.26
2016-07-25T04:33:34.761Z,1012.21
2016-07-25T04:34:34.749Z,1012.24
2016-07-25T04:35:34.738Z,1012.26
2016-07-25T04:36:34.722Z,1012.29
2016-07-25T04:37:34.709Z,1012.33
2016-07-25T04:38:34.689Z,1012.31
2016-07-25T04:39:34.676Z,1012.27
2016-07-25T04:40:34.660Z,1012.29
2016-07-25T04:41:34.649Z,1012.33
2016-07-25T04:42:34.631Z,1012.32
2016-07-25T04:43:34.619Z,1012.32
2016-07-25T04:44:34.599Z,1012.3
2016-07-25T04:45:34.584Z,1012.35
2016-07-25T04:46:34.572Z,1012.32
2016-07-25T04:47:34.554Z,1012.29
2016-07-25T04:48:34.541Z,1012.33
2016-07-25T04:49:34.524Z,1012.36
2016-07-25T04:50:34.510Z,1012.36
2016-07-25T04:51:34.495Z,1012.35
2016-07-25T04:52:34.480Z,1012.4
2016-07-25T04:53:34.463Z,1012.39
2016-07-25T04:54:34.451Z,1012.41
2016-07-25T04:55:34.433Z,1012.35
2016-07-25T04:56:34.421Z,1012.36
2016-07-25T04:57:34.410Z,1012.39
2016-07-25T04:58:34.388Z,1012.35
2016-07-25T04:59:34.380Z,1012.32
2016-07-25T05:00:34.364Z,1012.33
2016-07-25T05:01:34.345Z,1012.34
2016-07-25T05:02:34.330Z,1012.32
2016-07-25T05:03:34.314Z,1012.33
2016-07-25T05:04:34.298Z,1012.34
2016-07-25T05:05:34.285Z,1012.34
2016-07-25T05:06:34.271Z,1012.29
2016-07-25T05:07:34.255Z,1012.3
2016-07-25T05:08:34.244Z,1012.34
2016-07-25T05:09:34.223Z,1012.31
2016-07-25T05:10:34.207Z,1012.28
2016-07-25T05:11:34.199Z,1012.33
2016-07-25T05:12:34.180Z,1012.34
2016-07-25T05:13:34.166Z,1012.32
2016-07-25T05:14:34.149Z,1012.37
2016-07-25T05:15:34.135Z,1012.37
2016-07-25T05:16:34.120Z,1012.39
2016-07-25T05:17:34.103Z,1012.4
2016-07-25T05:18:34.090Z,1012.43
2016-07-25T05:19:34.072Z,1012.4
2016-07-25T05:20:34.062Z,1012.42
2016-07-25T05:21:34.046Z,1012.44
2016-07-25T05:22:34.034Z,1012.45
2016-07-25T05:23:34.015Z,1012.42
2016-07-25T05:24:33.998Z,1012.39
2016-07-25T05:25:33.985Z,1012.38
2016-07-25T05:26:33.970Z,1012.39
2016-07-25T05:27:33.954Z,1012.38
2016-07-25T05:28:33.940Z,1012.38
2016-07-25T05:29:33.924Z,1012.36
2016-07-25T05:30:33.911Z,1012.38
2016-07-25T05:31:33.892Z,1012.37
2016-07-25T05:32:33.878Z,1012.39
2016-07-25T05:33:33.862Z,1012.42
2016-07-25T05:34:33.850Z,1012.43
2016-07-25T05:35:33.831Z,1012.44
2016-07-25T05:36:33.818Z,1012.43
2016-07-25T05:37:33.802Z,1012.4
2016-07-25T05:38:33.786Z,1012.43
2016-07-25T05:39:33.774Z,1012.41
2016-07-25T05:40:33.758Z,1012.43
2016-07-25T05:41:33.743Z,1012.39
2016-07-25T05:42:33.727Z,1012.48
2016-07-25T05:43:33.711Z,1012.41
2016-07-25T05:44:33.700Z,1012.42
2016-07-25T05:45:33.685Z,1012.5
2016-07-25T05:46:33.668Z,1012.49
2016-07-25T05:47:33.652Z,1012.46
2016-07-25T05:48:33.637Z,1012.54
2016-07-25T05:49:33.623Z,1012.5
2016-07-25T05:50:33.609Z,1012.49
2016-07-25T05:51:33.601Z,1012.43
2016-07-25T05:52:33.580Z,1012.5
2016-07-25T05:53:33.564Z,1012.5
2016-07-25T05:54:33.547Z,1012.49
2016-07-25T05:55:33.532Z,1012.49
2016-07-25T05:56:33.517Z,1012.52
2016-07-25T05:57:33.502Z,1012.5
2016-07-25T05:58:33.489Z,1012.52
2016-07-25T05:59:33.471Z,1012.51
2016-07-25T06:00:33.458Z,1012.52
2016-07-25T06:01:33.440Z,1012.51
2016-07-25T06:02:33.428Z,1012.51
2016-07-25T06:03:33.413Z,1012.55
2016-07-25T06:04:33.399Z,1012.54
2016-07-25T06:05:33.382Z,1012.54
2016-07-25T06:06:33.367Z,1012.52
2016-07-25T06:07:33.355Z,1012.52
2016-07-25T06:08:33.336Z,1012.53
2016-07-25T06:09:33.325Z,1012.49
2016-07-25T06:10:33.306Z,1012.56
2016-07-25T06:11:33.296Z,1012.51
2016-07-25T06:12:33.324Z,1012.53
2016-07-25T06:13:33.263Z,1012.52
2016-07-25T06:14:33.252Z,1012.59
2016-07-25T06:15:33.230Z,1012.56
2016-07-25T06:16:33.216Z,1012.58
2016-07-25T06:17:33.200Z,1012.58
2016-07-25T06:18:33.189Z,1012.58
2016-07-25T06:19:33.168Z,1012.61
2016-07-25T06:20:33.160Z,1012.58
2016-07-25T06:21:33.143Z,1012.63
2016-07-25T06:22:33.123Z,1012.61
2016-07-25T06:23:33.111Z,1012.62
2016-07-25T06:24:33.096Z,1012.66
2016-07-25T06:25:33.078Z,1012.64
2016-07-25T06:26:33.071Z,1012.67
2016-07-25T06:27:33.048Z,1012.67
2016-07-25T06:28:33.036Z,1012.62
2016-07-25T06:29:33.020Z,1012.72
2016-07-25T06:30:33.005Z,1012.67
2016-07-25T06:31:32.989Z,1012.66
2016-07-25T06:32:32.976Z,1012.67
2016-07-25T06:33:32.959Z,1012.67
2016-07-25T06:34:32.943Z,1012.62
2016-07-25T06:36:32.915Z,1012.61
2016-07-25T06:37:32.896Z,1012.63
2016-07-25T06:38:32.884Z,1012.58
2016-07-25T06:39:32.869Z,1012.64
2016-07-25T06:40:32.853Z,1012.63
2016-07-25T06:41:32.839Z,1012.63
2016-07-25T06:42:32.823Z,1012.67
2016-07-25T06:43:32.807Z,1012.64
2016-07-25T06:44:32.798Z,1012.66
2016-07-25T06:45:32.778Z,1012.67
2016-07-25T06:46:32.763Z,1012.62
2016-07-25T06:47:32.750Z,1012.62
2016-07-25T06:48:32.732Z,1012.65
2016-07-25T06:49:32.718Z,1012.61
2016-07-25T06:50:32.707Z,1012.65
2016-07-25T06:51:32.699Z,1012.64
2016-07-25T06:52:32.670Z,1012.62
2016-07-25T06:53:32.657Z,1012.63
2016-07-25T06:54:32.651Z,1012.62
2016-07-25T06:55:32.630Z,1012.68
2016-07-25T06:56:32.617Z,1012.6
2016-07-25T06:57:32.601Z,1012.59
2016-07-25T06:58:32.589Z,1012.57
2016-07-25T06:59:32.568Z,1012.58
2016-07-25T07:00:32.554Z,1012.56
2016-07-25T07:01:32.539Z,1012.57
2016-07-25T07:02:32.524Z,1012.63
2016-07-25T07:03:32.510Z,1012.58
2016-07-25T07:04:32.498Z,1012.6
2016-07-25T07:05:32.479Z,1012.59
2016-07-25T07:06:32.468Z,1012.6
2016-07-25T07:07:32.447Z,1012.6
2016-07-25T07:08:32.435Z,1012.62
2016-07-25T07:09:32.421Z,1012.65
2016-07-25T07:10:32.402Z,1012.66
2016-07-25T07:11:32.387Z,1012.64
2016-07-25T07:12:32.375Z,1012.64
2016-07-25T07:13:32.360Z,1012.63
2016-07-25T07:14:32.345Z,1012.63
2016-07-25T07:15:32.334Z,1012.68
2016-07-25T07:16:32.315Z,1012.64
2016-07-25T07:17:32.299Z,1012.67
2016-07-25T07:18:32.286Z,1012.67
2016-07-25T07:19:32.271Z,1012.67
2016-07-25T07:20:32.256Z,1012.71
2016-07-25T07:21:32.240Z,1012.72
2016-07-25T07:22:32.226Z,1012.73
2016-07-25T07:23:32.211Z,1012.71
2016-07-25T07:24:32.195Z,1012.7
2016-07-25T07:25:32.180Z,1012.65
2016-07-25T07:26:32.167Z,1012.66
2016-07-25T07:27:32.151Z,1012.67
2016-07-25T07:28:32.136Z,1012.69
2016-07-25T07:29:32.122Z,1012.68
2016-07-25T07:30:32.107Z,1012.64
2016-07-25T07:31:32.090Z,1012.68
2016-07-25T07:32:32.074Z,1012.65
2016-07-25T07:33:32.065Z,1012.68
2016-07-25T07:34:32.045Z,1012.7
2016-07-25T07:35:32.032Z,1012.68
2016-07-25T07:36:32.017Z,1012.67
2016-07-25T07:37:32.002Z,1012.59
2016-07-25T07:38:31.986Z,1012.65
2016-07-25T07:39:31.974Z,1012.66
2016-07-25T07:40:31.959Z,1012.66
2016-07-25T07:41:31.945Z,1012.66
2016-07-25T07:42:31.927Z,1012.71
2016-07-25T07:43:31.914Z,1012.77
2016-07-25T07:44:31.897Z,1012.64
2016-07-25T07:45:31.883Z,1012.66
2016-07-25T07:46:31.871Z,1012.6
2016-07-25T07:47:31.852Z,1012.61
2016-07-25T07:48:31.838Z,1012.66
2016-07-25T07:49:31.821Z,1012.67
2016-07-25T07:50:31.808Z,1012.69
2016-07-25T07:51:31.795Z,1012.67
2016-07-25T07:52:31.779Z,1012.73
2016-07-25T07:53:31.764Z,1012.7
2016-07-25T07:54:31.751Z,1012.68
2016-07-25T07:55:31.738Z,1012.68
2016-07-25T07:56:31.720Z,1012.69
2016-07-25T07:57:31.708Z,1012.62
2016-07-25T07:58:31.689Z,1012.66
2016-07-25T07:59:31.679Z,1012.66
2016-07-25T08:00:31.661Z,1012.67
2016-07-25T08:01:31.646Z,1012.71
2016-07-25T08:02:31.641Z,1012.67
2016-07-25T08:03:31.613Z,1012.67
2016-07-25T08:04:31.597Z,1012.68
2016-07-25T08:05:31.594Z,1012.7
2016-07-25T08:06:31.576Z,1012.72
2016-07-25T08:07:31.555Z,1012.71
2016-07-25T08:08:31.545Z,1012.69
2016-07-25T08:09:31.526Z,1012.72
2016-07-25T08:10:31.515Z,1012.73
2016-07-25T08:11:31.501Z,1012.75
2016-07-25T08:12:31.486Z,1012.7
2016-07-25T08:13:31.474Z,1012.75
2016-07-25T08:14:31.458Z,1012.71
2016-07-25T08:15:31.442Z,1012.73
2016-07-25T08:16:31.428Z,1012.75
2016-07-25T08:17:31.413Z,1012.74
2016-07-25T08:18:31.398Z,1012.76
2016-07-25T08:19:31.382Z,1012.74
2016-07-25T08:20:31.369Z,1012.71
2016-07-25T08:21:31.353Z,1012.71
2016-07-25T08:22:31.341Z,1012.73
2016-07-25T08:23:31.325Z,1012.74
2016-07-25T08:24:31.310Z,1012.73
2016-07-25T08:25:31.295Z,1012.72
2016-07-25T08:26:31.284Z,1012.73
2016-07-25T08:27:31.267Z,1012.67
2016-07-25T08:28:31.259Z,1012.69
2016-07-25T08:29:31.234Z,1012.72
2016-07-25T08:30:31.223Z,1012.72
2016-07-25T08:31:31.210Z,1012.65
2016-07-25T08:32:31.194Z,1012.7
2016-07-25T08:33:31.180Z,1012.69
2016-07-25T08:34:31.164Z,1012.7
2016-07-25T08:35:31.150Z,1012.69
2016-07-25T08:36:31.137Z,1012.75
2016-07-25T08:37:31.122Z,1012.71
2016-07-25T08:38:31.108Z,1012.69
2016-07-25T08:39:31.093Z,1012.72
2016-07-25T08:40:31.080Z,1012.72
2016-07-25T08:41:31.064Z,1012.74
2016-07-25T08:42:31.049Z,1012.71
2016-07-25T08:43:31.040Z,1012.72
2016-07-25T08:44:31.024Z,1012.76
2016-07-25T08:45:31.008Z,1012.74
2016-07-25T08:46:30.994Z,1012.72
2016-07-25T08:47:30.980Z,1012.77
2016-07-25T08:48:30.965Z,1012.8
2016-07-25T08:49:30.949Z,1012.72
2016-07-25T08:50:30.943Z,1012.74
2016-07-25T08:51:30.920Z,1012.77
2016-07-25T08:52:30.906Z,1012.77
2016-07-25T08:53:30.892Z,1012.73
2016-07-25T08:54:30.879Z,1012.76
2016-07-25T08:55:30.863Z,1012.74
2016-07-25T08:56:30.848Z,1012.78
2016-07-25T08:57:30.834Z,1012.75
2016-07-25T08:58:30.818Z,1012.7
2016-07-25T08:59:30.802Z,1012.71
2016-07-25T09:00:30.789Z,1012.72
2016-07-25T09:01:30.774Z,1012.75
2016-07-25T09:02:30.765Z,1012.72
2016-07-25T09:03:30.751Z,1012.72
2016-07-25T09:04:30.731Z,1012.7
2016-07-25T09:05:30.719Z,1012.7
2016-07-25T09:06:30.706Z,1012.67
2016-07-25T09:07:30.693Z,1012.7
2016-07-25T09:08:30.673Z,1012.7
2016-07-25T09:09:30.661Z,1012.69
2016-07-25T09:10:30.659Z,1012.74
2016-07-25T09:11:30.634Z,1012.72
2016-07-25T09:12:30.618Z,1012.71
2016-07-25T09:13:30.605Z,1012.66
2016-07-25T09:14:30.589Z,1012.68
2016-07-25T09:15:30.575Z,1012.7
2016-07-25T09:16:30.559Z,1012.69
2016-07-25T09:17:30.550Z,1012.72
2016-07-25T09:18:30.533Z,1012.68
2016-07-25T09:19:30.520Z,1012.68
2016-07-25T09:20:30.512Z,1012.69
2016-07-25T09:21:30.490Z,1012.7
2016-07-25T09:22:30.476Z,1012.7
2016-07-25T09:23:30.459Z,1012.7
2016-07-25T09:24:30.446Z,1012.67
2016-07-25T09:25:30.430Z,1012.69
2016-07-25T09:26:30.417Z,1012.72
2016-07-25T09:27:30.404Z,1012.7
2016-07-25T09:28:30.392Z,1012.68
2016-07-25T09:29:30.375Z,1012.69
2016-07-25T09:30:30.360Z,1012.69
2016-07-25T09:31:30.348Z,1012.69
2016-07-25T09:32:30.334Z,1012.64
2016-07-25T09:33:30.321Z,1012.62
2016-07-25T09:34:30.302Z,1012.69
2016-07-25T09:35:30.291Z,1012.68
2016-07-25T09:36:30.277Z,1012.7
2016-07-25T09:37:30.264Z,1012.73
2016-07-25T09:38:30.247Z,1012.72
2016-07-25T09:39:30.234Z,1012.66
2016-07-25T09:40:30.217Z,1012.7
2016-07-25T09:41:30.204Z,1012.74
2016-07-25T09:42:30.190Z,1012.74
2016-07-25T09:43:30.177Z,1012.77
2016-07-25T09:44:30.163Z,1012.77
2016-07-25T09:45:30.149Z,1012.72
2016-07-25T09:46:30.135Z,1012.66
2016-07-25T09:47:30.120Z,1012.67
2016-07-25T09:48:30.103Z,1012.72
2016-07-25T09:49:30.090Z,1012.77
2016-07-25T09:50:30.077Z,1012.74
2016-07-25T09:51:30.065Z,1012.7
2016-07-25T09:52:30.052Z,1012.72
2016-07-25T09:53:30.035Z,1012.68
2016-07-25T09:54:30.022Z,1012.67
2016-07-25T09:55:30.010Z,1012.69
2016-07-25T09:56:29.999Z,1012.69
2016-07-25T09:57:29.981Z,1012.65
2016-07-25T09:58:29.962Z,1012.69
2016-07-25T09:59:29.950Z,1012.66
2016-07-25T10:00:29.941Z,1012.69
2016-07-25T10:01:29.923Z,1012.69
2016-07-25T10:02:29.906Z,1012.69
2016-07-25T10:03:29.893Z,1012.68
2016-07-25T10:04:29.880Z,1012.66
2016-07-25T10:05:29.864Z,1012.66
2016-07-25T10:06:29.851Z,1012.58
2016-07-25T10:07:29.838Z,1012.61
2016-07-25T10:08:29.823Z,1012.58
2016-07-25T10:09:29.808Z,1012.58
2016-07-25T10:10:29.792Z,1012.56
2016-07-25T10:11:29.783Z,1012.55
2016-07-25T10:12:29.770Z,1012.53
2016-07-25T10:13:29.753Z,1012.54
2016-07-25T10:14:29.737Z,1012.57
2016-07-25T10:15:29.723Z,1012.54
2016-07-25T10:16:29.708Z,1012.55
2016-07-25T10:17:29.695Z,1012.57
2016-07-25T10:18:29.681Z,1012.59
2016-07-25T10:19:29.667Z,1012.5
2016-07-25T10:20:29.649Z,1012.54
2016-07-25T10:21:29.639Z,1012.53
2016-07-25T10:22:29.625Z,1012.54
2016-07-25T10:23:29.610Z,1012.49
2016-07-25T10:24:29.635Z,1012.5
2016-07-25T10:25:29.581Z,1012.47
2016-07-25T10:26:29.567Z,1012.46
2016-07-25T10:27:29.553Z,1012.53
2016-07-25T10:28:29.544Z,1012.54
2016-07-25T10:29:29.527Z,1012.54
2016-07-25T10:30:29.513Z,1012.55
2016-07-25T10:31:29.500Z,1012.53
2016-07-25T10:32:29.484Z,1012.55
2016-07-25T10:33:29.469Z,1012.54
2016-07-25T10:34:29.455Z,1012.52
2016-07-25T10:35:29.446Z,1012.55
2016-07-25T10:36:29.427Z,1012.6
2016-07-25T10:37:29.415Z,1012.63
2016-07-25T10:38:29.398Z,1012.59
2016-07-25T10:39:29.384Z,1012.55
2016-07-25T10:40:29.370Z,1012.56
2016-07-25T10:41:29.359Z,1012.58
2016-07-25T10:42:29.342Z,1012.51
2016-07-25T10:43:29.331Z,1012.55
2016-07-25T10:44:29.312Z,1012.5
2016-07-25T10:45:29.309Z,1012.46
2016-07-25T10:46:29.288Z,1012.53
2016-07-25T10:47:29.272Z,1012.48
2016-07-25T10:48:29.260Z,1012.56
2016-07-25T10:49:29.243Z,1012.51
2016-07-25T10:50:29.233Z,1012.56
2016-07-25T10:51:29.221Z,1012.54
2016-07-25T10:52:29.202Z,1012.56
2016-07-25T10:53:29.187Z,1012.53
2016-07-25T10:54:29.176Z,1012.58
2016-07-25T10:55:29.173Z,1012.57
2016-07-25T10:56:29.147Z,1012.56
2016-07-25T10:57:29.132Z,1012.54
2016-07-25T10:58:29.119Z,1012.54
2016-07-25T10:59:29.105Z,1012.6
2016-07-25T11:00:29.091Z,1012.61
2016-07-25T11:01:29.078Z,1012.54
2016-07-25T11:02:29.063Z,1012.6
2016-07-25T11:03:29.048Z,1012.54
2016-07-25T11:04:29.047Z,1012.53
2016-07-25T11:05:29.028Z,1012.5
2016-07-25T11:06:29.008Z,1012.57
2016-07-25T11:07:28.993Z,1012.49
2016-07-25T11:08:28.989Z,1012.48
2016-07-25T11:09:28.964Z,1012.51
2016-07-25T11:10:28.956Z,1012.48
2016-07-25T11:11:28.937Z,1012.47
2016-07-25T11:12:28.930Z,1012.48
2016-07-25T11:13:28.913Z,1012.56
2016-07-25T11:14:28.900Z,1012.46
2016-07-25T11:15:28.879Z,1012.55
2016-07-25T11:16:28.869Z,1012.51
2016-07-25T11:17:28.855Z,1012.43
2016-07-25T11:18:28.843Z,1012.47
2016-07-25T11:19:28.825Z,1012.46
2016-07-25T11:20:28.810Z,1012.43
2016-07-25T11:21:28.799Z,1012.4
2016-07-25T11:22:28.787Z,1012.42
2016-07-25T11:23:28.770Z,1012.49
2016-07-25T11:24:28.756Z,1012.49
2016-07-25T11:25:28.744Z,1012.43
2016-07-25T11:26:28.731Z,1012.42
2016-07-25T11:27:28.716Z,1012.42
2016-07-25T11:28:28.707Z,1012.42
2016-07-25T11:29:28.685Z,1012.42
2016-07-25T11:30:28.675Z,1012.42
2016-07-25T11:31:28.659Z,1012.41
2016-07-25T11:32:28.644Z,1012.4
2016-07-25T11:33:28.635Z,1012.38
2016-07-25T11:34:28.617Z,1012.39
2016-07-25T11:35:28.603Z,1012.4
2016-07-25T11:36:28.592Z,1012.46
2016-07-25T11:37:28.575Z,1012.4
2016-07-25T11:38:28.560Z,1012.41
2016-07-25T11:39:28.556Z,1012.37
2016-07-25T11:40:28.536Z,1012.37
2016-07-25T11:41:28.522Z,1012.42
2016-07-25T11:42:28.506Z,1012.41
2016-07-25T11:43:28.497Z,1012.43
2016-07-25T11:44:28.479Z,1012.39
2016-07-25T11:45:28.467Z,1012.4
2016-07-25T11:46:28.450Z,1012.47
2016-07-25T11:47:28.438Z,1012.43
2016-07-25T11:48:28.426Z,1012.4
2016-07-25T11:49:28.412Z,1012.38
2016-07-25T11:50:28.398Z,1012.38
2016-07-25T11:51:28.383Z,1012.38
2016-07-25T11:52:28.368Z,1012.38
2016-07-25T11:53:28.358Z,1012.35
2016-07-25T11:54:28.342Z,1012.34
2016-07-25T11:55:28.328Z,1012.32
2016-07-25T11:56:28.316Z,1012.34
2016-07-25T11:57:28.305Z,1012.28
2016-07-25T11:58:28.287Z,1012.32
2016-07-25T11:59:28.271Z,1012.34
2016-07-25T12:00:28.262Z,1012.31
2016-07-25T12:01:28.248Z,1012.35
2016-07-25T12:02:28.232Z,1012.28
2016-07-25T12:03:28.223Z,1012.33
2016-07-25T12:04:28.206Z,1012.36
2016-07-25T12:05:28.194Z,1012.39
2016-07-25T12:06:28.179Z,1012.31
2016-07-25T12:07:28.165Z,1012.35
2016-07-25T12:08:28.155Z,1012.31
2016-07-25T12:09:28.132Z,1012.3